sensor_id;sensor_type;location;lat;lon;timestamp;pressure;altitude;pressure_sealevel;temperature;humidity
41254;BME280;26987;59.928;30.306;2022-09-09T00:00:55;102546.09;;;8.54;83.06
41254;BME280;26987;59.928;30.306;2022-09-09T00:03:32;102543.44;;;8.54;82.51
41254;BME280;26987;59.928;30.306;2022-09-09T00:06:08;102548.91;;;8.52;82.49
41254;BME280;26987;59.928;30.306;2022-09-09T00:08:45;102553.41;;;8.52;81.81
41254;BME280;26987;59.928;30.306;2022-09-09T00:11:24;102548.50;;;8.47;80.98
41254;BME280;26987;59.928;30.306;2022-09-09T00:13:56;102549.88;;;8.51;81.52
41254;BME280;26987;59.928;30.306;2022-09-09T00:16:28;102557.34;;;8.48;81.17
41254;BME280;26987;59.928;30.306;2022-09-09T00:19:06;102531.50;;;8.38;80.51
41254;BME280;26987;59.928;30.306;2022-09-09T00:21:39;102558.59;;;8.53;80.01
41254;BME280;26987;59.928;30.306;2022-09-09T00:24:14;102565.09;;;8.51;80.49
41254;BME280;26987;59.928;30.306;2022-09-09T00:26:44;102565.00;;;8.70;80.38
41254;BME280;26987;59.928;30.306;2022-09-09T00:29:22;102563.81;;;8.55;80.67
41254;BME280;26987;59.928;30.306;2022-09-09T00:31:54;102568.44;;;8.53;80.96
41254;BME280;26987;59.928;30.306;2022-09-09T00:34:28;102569.28;;;8.53;80.73
41254;BME280;26987;59.928;30.306;2022-09-09T00:36:57;102562.97;;;8.54;80.60
41254;BME280;26987;59.928;30.306;2022-09-09T00:39:32;102559.47;;;8.54;80.68
41254;BME280;26987;59.928;30.306;2022-09-09T00:42:11;102570.41;;;8.61;80.28
41254;BME280;26987;59.928;30.306;2022-09-09T00:44:51;102569.56;;;8.60;79.92
41254;BME280;26987;59.928;30.306;2022-09-09T00:47:39;102576.00;;;8.67;80.28
41254;BME280;26987;59.928;30.306;2022-09-09T00:50:28;102575.75;;;8.61;79.98
41254;BME280;26987;59.928;30.306;2022-09-09T00:53:09;102566.75;;;8.52;79.67
41254;BME280;26987;59.928;30.306;2022-09-09T00:55:45;102543.72;;;8.41;79.46
41254;BME280;26987;59.928;30.306;2022-09-09T00:58:15;102573.22;;;8.59;79.22
41254;BME280;26987;59.928;30.306;2022-09-09T01:00:44;102571.56;;;8.58;79.34
41254;BME280;26987;59.928;30.306;2022-09-09T01:03:21;102575.91;;;8.59;79.40
41254;BME280;26987;59.928;30.306;2022-09-09T01:06:01;102568.16;;;8.56;79.61
41254;BME280;26987;59.928;30.306;2022-09-09T01:08:45;102570.81;;;8.66;79.50
41254;BME280;26987;59.928;30.306;2022-09-09T01:11:20;102567.72;;;8.61;79.53
41254;BME280;26987;59.928;30.306;2022-09-09T01:13:55;102564.91;;;8.62;79.59
41254;BME280;26987;59.928;30.306;2022-09-09T01:16:29;102560.56;;;8.61;79.60
41254;BME280;26987;59.928;30.306;2022-09-09T01:18:59;102560.00;;;8.57;79.87
41254;BME280;26987;59.928;30.306;2022-09-09T01:21:39;102560.94;;;8.66;79.18
41254;BME280;26987;59.928;30.306;2022-09-09T01:24:19;102562.66;;;8.67;78.86
41254;BME280;26987;59.928;30.306;2022-09-09T01:27:18;102565.63;;;8.64;77.99
41254;BME280;26987;59.928;30.306;2022-09-09T01:29:48;102568.59;;;8.61;78.31
41254;BME280;26987;59.928;30.306;2022-09-09T01:32:37;102564.84;;;8.72;78.58
41254;BME280;26987;59.928;30.306;2022-09-09T01:35:08;102568.97;;;8.66;78.49
41254;BME280;26987;59.928;30.306;2022-09-09T01:37:39;102567.59;;;8.62;78.08
41254;BME280;26987;59.928;30.306;2022-09-09T01:40:08;102566.22;;;8.58;78.34
41254;BME280;26987;59.928;30.306;2022-09-09T01:46:46;102570.25;;;8.62;79.11
41254;BME280;26987;59.928;30.306;2022-09-09T01:49:20;102554.13;;;8.54;78.87
41254;BME280;26987;59.928;30.306;2022-09-09T01:51:51;102567.03;;;8.58;79.30
41254;BME280;26987;59.928;30.306;2022-09-09T01:54:26;102559.84;;;8.59;78.81
41254;BME280;26987;59.928;30.306;2022-09-09T01:57:05;102561.38;;;8.62;78.33
41254;BME280;26987;59.928;30.306;2022-09-09T01:59:54;102568.97;;;8.66;77.83
41254;BME280;26987;59.928;30.306;2022-09-09T02:02:32;102570.09;;;8.64;77.41
41254;BME280;26987;59.928;30.306;2022-09-09T02:05:17;102571.25;;;8.61;77.91
41254;BME280;26987;59.928;30.306;2022-09-09T02:07:55;102562.97;;;8.54;77.67
41254;BME280;26987;59.928;30.306;2022-09-09T02:10:47;102564.81;;;8.54;77.72
41254;BME280;26987;59.928;30.306;2022-09-09T02:13:32;102568.31;;;8.54;78.13
41254;BME280;26987;59.928;30.306;2022-09-09T02:16:07;102574.78;;;8.52;78.53
41254;BME280;26987;59.928;30.306;2022-09-09T02:18:40;102574.06;;;8.50;78.40
41254;BME280;26987;59.928;30.306;2022-09-09T02:21:11;102577.31;;;8.53;78.73
41254;BME280;26987;59.928;30.306;2022-09-09T02:23:42;102580.97;;;8.52;78.42
41254;BME280;26987;59.928;30.306;2022-09-09T02:26:13;102571.25;;;8.51;78.44
41254;BME280;26987;59.928;30.306;2022-09-09T02:28:50;102572.41;;;8.49;77.79
41254;BME280;26987;59.928;30.306;2022-09-09T02:31:21;102569.72;;;8.49;77.66
41254;BME280;26987;59.928;30.306;2022-09-09T02:33:58;102563.38;;;8.50;77.66
41254;BME280;26987;59.928;30.306;2022-09-09T02:36:29;102572.69;;;8.45;77.36
41254;BME280;26987;59.928;30.306;2022-09-09T02:39:01;102572.69;;;8.45;76.79
41254;BME280;26987;59.928;30.306;2022-09-09T02:41:35;102552.19;;;8.36;76.70
41254;BME280;26987;59.928;30.306;2022-09-09T02:44:05;102549.38;;;8.38;76.90
41254;BME280;26987;59.928;30.306;2022-09-09T02:46:46;102535.91;;;8.29;76.62
41254;BME280;26987;59.928;30.306;2022-09-09T02:49:25;102551.22;;;8.37;76.50
41254;BME280;26987;59.928;30.306;2022-09-09T02:52:01;102561.75;;;8.39;77.05
41254;BME280;26987;59.928;30.306;2022-09-09T02:54:35;102559.81;;;8.31;77.40
41254;BME280;26987;59.928;30.306;2022-09-09T02:57:12;102550.41;;;8.27;77.04
41254;BME280;26987;59.928;30.306;2022-09-09T02:59:43;102556.16;;;8.32;77.09
41254;BME280;26987;59.928;30.306;2022-09-09T03:02:12;102557.44;;;8.28;77.34
41254;BME280;26987;59.928;30.306;2022-09-09T03:04:43;102558.97;;;8.30;76.67
41254;BME280;26987;59.928;30.306;2022-09-09T03:07:17;102553.38;;;8.24;76.96
41254;BME280;26987;59.928;30.306;2022-09-09T03:09:46;102555.06;;;8.25;77.24
41254;BME280;26987;59.928;30.306;2022-09-09T03:12:14;102551.16;;;8.19;77.54
41254;BME280;26987;59.928;30.306;2022-09-09T03:14:42;102552.81;;;8.20;77.54
41254;BME280;26987;59.928;30.306;2022-09-09T03:17:13;102556.78;;;8.16;77.98
41254;BME280;26987;59.928;30.306;2022-09-09T03:19:49;102550.59;;;8.15;77.96
41254;BME280;26987;59.928;30.306;2022-09-09T03:22:19;102550.06;;;8.12;78.01
41254;BME280;26987;59.928;30.306;2022-09-09T03:24:47;102555.06;;;8.15;78.49
41254;BME280;26987;59.928;30.306;2022-09-09T03:27:15;102554.94;;;8.16;78.19
41254;BME280;26987;59.928;30.306;2022-09-09T03:29:44;102551.97;;;8.19;78.14
41254;BME280;26987;59.928;30.306;2022-09-09T03:32:18;102558.03;;;8.22;78.01
41254;BME280;26987;59.928;30.306;2022-09-09T03:34:50;102547.75;;;8.27;77.89
41254;BME280;26987;59.928;30.306;2022-09-09T03:37:19;102554.63;;;8.29;78.02
41254;BME280;26987;59.928;30.306;2022-09-09T03:39:48;102550.66;;;8.33;77.39
41254;BME280;26987;59.928;30.306;2022-09-09T03:42:18;102547.13;;;8.33;77.28
41254;BME280;26987;59.928;30.306;2022-09-09T03:44:48;102557.81;;;8.33;77.36
41254;BME280;26987;59.928;30.306;2022-09-09T03:47:19;102559.25;;;8.37;77.22
41254;BME280;26987;59.928;30.306;2022-09-09T03:49:52;102567.94;;;8.39;77.53
41254;BME280;26987;59.928;30.306;2022-09-09T03:52:20;102553.91;;;8.37;77.49
41254;BME280;26987;59.928;30.306;2022-09-09T03:54:53;102561.72;;;8.49;77.54
41254;BME280;26987;59.928;30.306;2022-09-09T03:57:22;102564.22;;;8.50;77.38
41254;BME280;26987;59.928;30.306;2022-09-09T03:59:50;102573.38;;;8.57;77.76
41254;BME280;26987;59.928;30.306;2022-09-09T04:02:18;102559.47;;;8.54;77.24
41254;BME280;26987;59.928;30.306;2022-09-09T04:04:47;102561.94;;;8.65;77.48
41254;BME280;26987;59.928;30.306;2022-09-09T04:07:17;102566.84;;;8.70;78.10
41254;BME280;26987;59.928;30.306;2022-09-09T04:09:45;102568.28;;;8.64;78.12
41254;BME280;26987;59.928;30.306;2022-09-09T04:12:14;102538.34;;;8.51;78.76
41254;BME280;26987;59.928;30.306;2022-09-09T04:14:43;102559.50;;;8.72;78.90
41254;BME280;26987;59.928;30.306;2022-09-09T04:17:11;102557.66;;;8.73;78.97
41254;BME280;26987;59.928;30.306;2022-09-09T04:19:39;102571.31;;;8.79;79.08
41254;BME280;26987;59.928;30.306;2022-09-09T04:22:08;102581.38;;;8.86;79.39
41254;BME280;26987;59.928;30.306;2022-09-09T04:24:38;102578.25;;;8.90;79.44
41254;BME280;26987;59.928;30.306;2022-09-09T04:27:07;102574.81;;;8.98;79.66
41254;BME280;26987;59.928;30.306;2022-09-09T04:29:36;102579.84;;;9.11;79.42
41254;BME280;26987;59.928;30.306;2022-09-09T04:32:05;102586.09;;;9.20;78.71
41254;BME280;26987;59.928;30.306;2022-09-09T04:34:33;102572.78;;;9.28;78.29
41254;BME280;26987;59.928;30.306;2022-09-09T04:37:01;102583.94;;;9.42;78.48
41254;BME280;26987;59.928;30.306;2022-09-09T04:39:29;102572.53;;;9.58;77.27
41254;BME280;26987;59.928;30.306;2022-09-09T04:42:01;102575.13;;;9.68;77.14
41254;BME280;26987;59.928;30.306;2022-09-09T04:44:29;102568.63;;;9.70;76.38
41254;BME280;26987;59.928;30.306;2022-09-09T04:46:59;102568.75;;;9.69;76.02
41254;BME280;26987;59.928;30.306;2022-09-09T04:49:27;102565.63;;;9.74;76.10
41254;BME280;26987;59.928;30.306;2022-09-09T04:51:58;102576.47;;;9.90;75.65
41254;BME280;26987;59.928;30.306;2022-09-09T04:54:27;102572.88;;;10.08;75.36
41254;BME280;26987;59.928;30.306;2022-09-09T04:56:55;102571.28;;;10.24;74.36
41254;BME280;26987;59.928;30.306;2022-09-09T04:59:24;102567.69;;;10.41;73.77
41254;BME280;26987;59.928;30.306;2022-09-09T05:01:55;102576.97;;;11.98;68.19
41254;BME280;26987;59.928;30.306;2022-09-09T05:04:23;102564.44;;;12.39;64.71
41254;BME280;26987;59.928;30.306;2022-09-09T05:06:51;102580.63;;;12.22;65.15
41254;BME280;26987;59.928;30.306;2022-09-09T05:09:20;102585.38;;;12.12;65.55
41254;BME280;26987;59.928;30.306;2022-09-09T05:11:48;102585.66;;;14.21;58.16
41254;BME280;26987;59.928;30.306;2022-09-09T05:14:28;102589.88;;;16.63;49.88
41254;BME280;26987;59.928;30.306;2022-09-09T05:16:57;102593.56;;;18.19;44.89
41254;BME280;26987;59.928;30.306;2022-09-09T05:19:25;102592.72;;;19.10;42.21
41254;BME280;26987;59.928;30.306;2022-09-09T05:21:54;102590.50;;;18.94;42.02
41254;BME280;26987;59.928;30.306;2022-09-09T05:24:27;102591.13;;;17.57;44.76
41254;BME280;26987;59.928;30.306;2022-09-09T05:26:58;102593.19;;;17.55;45.19
41254;BME280;26987;59.928;30.306;2022-09-09T05:29:29;102597.34;;;17.98;44.36
41254;BME280;26987;59.928;30.306;2022-09-09T05:32:00;102596.59;;;16.67;46.83
41254;BME280;26987;59.928;30.306;2022-09-09T05:34:29;102596.75;;;17.48;45.28
41254;BME280;26987;59.928;30.306;2022-09-09T05:36:57;102601.72;;;19.11;41.81
41254;BME280;26987;59.928;30.306;2022-09-09T05:39:26;102597.78;;;20.09;39.58
41254;BME280;26987;59.928;30.306;2022-09-09T05:41:54;102592.66;;;20.69;37.96
41254;BME280;26987;59.928;30.306;2022-09-09T05:44:22;102603.09;;;20.90;37.38
41254;BME280;26987;59.928;30.306;2022-09-09T05:46:56;102602.59;;;21.48;36.46
41254;BME280;26987;59.928;30.306;2022-09-09T05:49:24;102607.47;;;21.46;35.98
41254;BME280;26987;59.928;30.306;2022-09-09T05:51:52;102598.94;;;21.66;35.64
41254;BME280;26987;59.928;30.306;2022-09-09T05:54:21;102591.69;;;21.72;35.42
41254;BME280;26987;59.928;30.306;2022-09-09T05:56:52;102594.06;;;22.04;34.73
41254;BME280;26987;59.928;30.306;2022-09-09T05:59:20;102592.38;;;22.03;34.70
41254;BME280;26987;59.928;30.306;2022-09-09T06:01:51;102595.59;;;22.53;34.18
41254;BME280;26987;59.928;30.306;2022-09-09T06:04:26;102591.72;;;22.78;33.83
41254;BME280;26987;59.928;30.306;2022-09-09T06:06:54;102590.03;;;22.60;32.92
41254;BME280;26987;59.928;30.306;2022-09-09T06:09:23;102587.91;;;22.79;32.74
41254;BME280;26987;59.928;30.306;2022-09-09T06:11:51;102584.69;;;22.83;32.67
41254;BME280;26987;59.928;30.306;2022-09-09T06:14:22;102591.09;;;23.05;32.37
41254;BME280;26987;59.928;30.306;2022-09-09T06:16:52;102599.16;;;23.29;32.21
41254;BME280;26987;59.928;30.306;2022-09-09T06:19:23;102591.94;;;23.23;32.10
41254;BME280;26987;59.928;30.306;2022-09-09T06:21:57;102592.22;;;22.92;32.24
41254;BME280;26987;59.928;30.306;2022-09-09T06:24:27;102586.44;;;22.89;32.53
41254;BME280;26987;59.928;30.306;2022-09-09T06:26:57;102585.22;;;22.67;33.01
41254;BME280;26987;59.928;30.306;2022-09-09T06:29:31;102586.53;;;22.24;33.24
41254;BME280;26987;59.928;30.306;2022-09-09T06:34:29;102593.66;;;20.56;36.21
41254;BME280;26987;59.928;30.306;2022-09-09T06:37:00;102588.91;;;19.18;39.58
41254;BME280;26987;59.928;30.306;2022-09-09T06:39:37;102588.94;;;18.26;41.62
41254;BME280;26987;59.928;30.306;2022-09-09T06:42:06;102586.94;;;17.68;42.79
41254;BME280;26987;59.928;30.306;2022-09-09T06:44:57;102589.84;;;17.12;43.82
41254;BME280;26987;59.928;30.306;2022-09-09T06:47:33;102580.78;;;16.84;44.20
41254;BME280;26987;59.928;30.306;2022-09-09T06:50:03;102583.00;;;16.60;44.76
41254;BME280;26987;59.928;30.306;2022-09-09T06:52:35;102587.47;;;16.33;45.83
41254;BME280;26987;59.928;30.306;2022-09-09T06:55:05;102584.94;;;16.24;45.92
41254;BME280;26987;59.928;30.306;2022-09-09T06:57:34;102579.25;;;16.12;46.35
41254;BME280;26987;59.928;30.306;2022-09-09T07:00:03;102590.19;;;15.97;46.43
41254;BME280;26987;59.928;30.306;2022-09-09T07:02:31;102583.13;;;15.74;47.04
41254;BME280;26987;59.928;30.306;2022-09-09T07:05:06;102592.91;;;15.75;47.18
41254;BME280;26987;59.928;30.306;2022-09-09T07:07:37;102584.56;;;15.70;47.46
41254;BME280;26987;59.928;30.306;2022-09-09T07:10:06;102592.00;;;15.68;47.98
41254;BME280;26987;59.928;30.306;2022-09-09T07:12:36;102585.72;;;15.61;47.96
41254;BME280;26987;59.928;30.306;2022-09-09T07:15:05;102586.69;;;15.53;47.75
41254;BME280;26987;59.928;30.306;2022-09-09T07:17:33;102595.22;;;15.28;48.38
41254;BME280;26987;59.928;30.306;2022-09-09T07:20:01;102603.19;;;15.15;49.45
41254;BME280;26987;59.928;30.306;2022-09-09T07:22:30;102601.91;;;15.32;49.30
41254;BME280;26987;59.928;30.306;2022-09-09T07:25:01;102609.78;;;15.27;48.58
41254;BME280;26987;59.928;30.306;2022-09-09T07:27:29;102600.16;;;15.03;48.72
41254;BME280;26987;59.928;30.306;2022-09-09T07:29:58;102606.19;;;14.83;49.38
41254;BME280;26987;59.928;30.306;2022-09-09T07:32:26;102610.72;;;14.82;49.33
41254;BME280;26987;59.928;30.306;2022-09-09T07:34:54;102616.78;;;14.84;49.10
41254;BME280;26987;59.928;30.306;2022-09-09T07:37:22;102611.63;;;14.74;49.44
41254;BME280;26987;59.928;30.306;2022-09-09T07:39:52;102616.41;;;14.72;49.73
41254;BME280;26987;59.928;30.306;2022-09-09T07:42:21;102611.56;;;14.83;49.88
41254;BME280;26987;59.928;30.306;2022-09-09T07:44:49;102612.03;;;14.71;49.92
41254;BME280;26987;59.928;30.306;2022-09-09T07:47:21;102611.22;;;14.41;50.98
41254;BME280;26987;59.928;30.306;2022-09-09T07:49:51;102612.81;;;14.35;50.95
41254;BME280;26987;59.928;30.306;2022-09-09T07:52:24;102607.44;;;14.35;51.41
41254;BME280;26987;59.928;30.306;2022-09-09T07:54:57;102613.56;;;14.44;51.28
41254;BME280;26987;59.928;30.306;2022-09-09T07:57:26;102617.34;;;14.65;50.02
41254;BME280;26987;59.928;30.306;2022-09-09T07:59:57;102616.22;;;14.89;49.12
41254;BME280;26987;59.928;30.306;2022-09-09T08:02:26;102622.16;;;14.99;48.81
41254;BME280;26987;59.928;30.306;2022-09-09T08:04:56;102622.88;;;15.08;48.80
41254;BME280;26987;59.928;30.306;2022-09-09T08:07:24;102617.09;;;15.11;48.81
41254;BME280;26987;59.928;30.306;2022-09-09T08:09:54;102618.69;;;15.06;48.23
41254;BME280;26987;59.928;30.306;2022-09-09T08:12:31;102622.59;;;15.03;48.17
41254;BME280;26987;59.928;30.306;2022-09-09T08:14:59;102616.47;;;14.94;48.49
41254;BME280;26987;59.928;30.306;2022-09-09T08:17:31;102621.63;;;14.89;48.24
41254;BME280;26987;59.928;30.306;2022-09-09T08:20:04;102622.47;;;14.59;48.94
41254;BME280;26987;59.928;30.306;2022-09-09T08:22:33;102621.28;;;14.32;49.36
41254;BME280;26987;59.928;30.306;2022-09-09T08:25:01;102632.63;;;14.12;50.47
41254;BME280;26987;59.928;30.306;2022-09-09T08:27:34;102627.88;;;13.99;51.29
41254;BME280;26987;59.928;30.306;2022-09-09T08:30:05;102620.75;;;13.83;51.48
41254;BME280;26987;59.928;30.306;2022-09-09T08:32:32;102595.63;;;13.67;50.60
41254;BME280;26987;59.928;30.306;2022-09-09T08:35:02;102621.41;;;13.85;50.39
41254;BME280;26987;59.928;30.306;2022-09-09T08:37:30;102624.97;;;13.85;49.61
41254;BME280;26987;59.928;30.306;2022-09-09T08:39:59;102626.09;;;13.91;49.50
41254;BME280;26987;59.928;30.306;2022-09-09T08:42:41;102627.06;;;14.44;49.04
41254;BME280;26987;59.928;30.306;2022-09-09T08:45:23;102611.41;;;14.39;47.30
41254;BME280;26987;59.928;30.306;2022-09-09T08:48:07;102628.09;;;14.43;47.27
41254;BME280;26987;59.928;30.306;2022-09-09T08:50:39;102616.34;;;14.20;46.69
41254;BME280;26987;59.928;30.306;2022-09-09T08:53:17;102610.94;;;14.20;46.92
41254;BME280;26987;59.928;30.306;2022-09-09T08:55:51;102614.09;;;14.09;47.17
41254;BME280;26987;59.928;30.306;2022-09-09T08:58:43;102624.53;;;14.12;48.24
41254;BME280;26987;59.928;30.306;2022-09-09T09:04:33;102628.44;;;14.55;47.29
41254;BME280;26987;59.928;30.306;2022-09-09T09:07:13;102620.78;;;14.73;45.91
41254;BME280;26987;59.928;30.306;2022-09-09T09:09:54;102628.19;;;15.01;45.29
41254;BME280;26987;59.928;30.306;2022-09-09T09:12:28;102623.44;;;15.04;44.53
41254;BME280;26987;59.928;30.306;2022-09-09T09:14:59;102628.22;;;15.23;44.42
41254;BME280;26987;59.928;30.306;2022-09-09T09:17:35;102629.59;;;15.34;43.49
41254;BME280;26987;59.928;30.306;2022-09-09T09:20:12;102625.56;;;15.30;43.52
41254;BME280;26987;59.928;30.306;2022-09-09T09:22:47;102623.09;;;15.29;43.58
41254;BME280;26987;59.928;30.306;2022-09-09T09:25:20;102625.25;;;15.18;42.23
41254;BME280;26987;59.928;30.306;2022-09-09T09:27:58;102620.63;;;15.12;41.38
41254;BME280;26987;59.928;30.306;2022-09-09T09:30:35;102616.03;;;15.12;42.04
41254;BME280;26987;59.928;30.306;2022-09-09T09:33:14;102614.25;;;14.98;41.97
41254;BME280;26987;59.928;30.306;2022-09-09T09:35:43;102615.00;;;14.76;41.88
41254;BME280;26987;59.928;30.306;2022-09-09T09:38:17;102607.41;;;14.80;41.12
41254;BME280;26987;59.928;30.306;2022-09-09T09:40:50;102615.69;;;14.48;42.06
41254;BME280;26987;59.928;30.306;2022-09-09T09:43:24;102613.56;;;14.44;42.61
41254;BME280;26987;59.928;30.306;2022-09-09T09:45:56;102606.56;;;14.49;42.63
41254;BME280;26987;59.928;30.306;2022-09-09T09:48:25;102606.94;;;14.61;42.00
41254;BME280;26987;59.928;30.306;2022-09-09T09:50:56;102609.78;;;14.75;41.95
41254;BME280;26987;59.928;30.306;2022-09-09T09:53:27;102613.25;;;14.69;41.08
41254;BME280;26987;59.928;30.306;2022-09-09T09:55:59;102605.59;;;14.72;40.91
41254;BME280;26987;59.928;30.306;2022-09-09T09:58:32;102606.66;;;14.71;41.91
41254;BME280;26987;59.928;30.306;2022-09-09T10:01:03;102608.03;;;14.67;42.00
41254;BME280;26987;59.928;30.306;2022-09-09T10:03:33;102603.13;;;14.56;41.23
41254;BME280;26987;59.928;30.306;2022-09-09T10:06:07;102595.78;;;14.49;41.23
41254;BME280;26987;59.928;30.306;2022-09-09T10:08:45;102606.84;;;14.55;42.05
41254;BME280;26987;59.928;30.306;2022-09-09T10:11:30;102597.81;;;14.47;42.12
41254;BME280;26987;59.928;30.306;2022-09-09T10:14:07;102593.38;;;13.94;42.83
41254;BME280;26987;59.928;30.306;2022-09-09T10:16:52;102598.53;;;13.81;43.69
41254;BME280;26987;59.928;30.306;2022-09-09T10:19:30;102584.19;;;13.42;44.81
41254;BME280;26987;59.928;30.306;2022-09-09T10:22:21;102597.06;;;13.31;45.83
41254;BME280;26987;59.928;30.306;2022-09-09T10:25:11;102595.91;;;13.25;46.58
41254;BME280;26987;59.928;30.306;2022-09-09T10:27:50;102596.28;;;13.22;47.09
41254;BME280;26987;59.928;30.306;2022-09-09T10:30:24;102592.22;;;13.27;47.33
41254;BME280;26987;59.928;30.306;2022-09-09T10:33:04;102600.22;;;13.35;46.66
41254;BME280;26987;59.928;30.306;2022-09-09T10:35:43;102594.25;;;13.24;47.07
41254;BME280;26987;59.928;30.306;2022-09-09T10:38:15;102593.00;;;13.35;46.38
41254;BME280;26987;59.928;30.306;2022-09-09T10:44:10;102584.09;;;13.58;46.35
41254;BME280;26987;59.928;30.306;2022-09-09T10:46:49;102582.81;;;13.46;46.19
41254;BME280;26987;59.928;30.306;2022-09-09T10:49:35;102580.97;;;13.46;46.88
41254;BME280;26987;59.928;30.306;2022-09-09T10:52:13;102589.09;;;13.38;46.92
41254;BME280;26987;59.928;30.306;2022-09-09T10:54:54;102589.69;;;13.48;46.89
41254;BME280;26987;59.928;30.306;2022-09-09T10:57:31;102587.69;;;13.51;46.90
41254;BME280;26987;59.928;30.306;2022-09-09T11:00:05;102584.81;;;13.52;46.86
41254;BME280;26987;59.928;30.306;2022-09-09T11:02:34;102583.84;;;13.45;47.09
41254;BME280;26987;59.928;30.306;2022-09-09T11:05:10;102587.34;;;13.45;47.71
41254;BME280;26987;59.928;30.306;2022-09-09T11:07:44;102576.00;;;13.35;47.13
41254;BME280;26987;59.928;30.306;2022-09-09T11:10:21;102586.59;;;13.36;47.37
41254;BME280;26987;59.928;30.306;2022-09-09T11:12:54;102566.09;;;13.27;46.90
41254;BME280;26987;59.928;30.306;2022-09-09T11:15:30;102576.28;;;13.40;47.32
41254;BME280;26987;59.928;30.306;2022-09-09T11:18:04;102575.53;;;13.31;47.97
41254;BME280;26987;59.928;30.306;2022-09-09T11:20:35;102576.00;;;13.35;47.44
41254;BME280;26987;59.928;30.306;2022-09-09T11:23:09;102574.97;;;13.36;47.16
41254;BME280;26987;59.928;30.306;2022-09-09T11:25:42;102570.06;;;13.40;46.87
41254;BME280;26987;59.928;30.306;2022-09-09T11:28:38;102567.13;;;13.49;47.05
41254;BME280;26987;59.928;30.306;2022-09-09T11:31:21;102553.41;;;13.36;46.99
41254;BME280;26987;59.928;30.306;2022-09-09T11:34:07;102576.56;;;13.54;46.11
41254;BME280;26987;59.928;30.306;2022-09-09T11:37:15;102572.28;;;13.59;46.13
41254;BME280;26987;59.928;30.306;2022-09-09T11:40:04;102559.66;;;13.60;45.78
41254;BME280;26987;59.928;30.306;2022-09-09T11:42:36;102559.38;;;13.70;46.80
41254;BME280;26987;59.928;30.306;2022-09-09T11:45:23;102562.47;;;13.82;46.17
41254;BME280;26987;59.928;30.306;2022-09-09T11:47:54;102569.31;;;13.69;46.11
41254;BME280;26987;59.928;30.306;2022-09-09T11:50:34;102561.75;;;13.88;46.11
41254;BME280;26987;59.928;30.306;2022-09-09T11:53:15;102564.13;;;13.83;45.12
41254;BME280;26987;59.928;30.306;2022-09-09T11:55:46;102559.78;;;13.82;45.16
41254;BME280;26987;59.928;30.306;2022-09-09T11:58:17;102539.97;;;13.74;45.15
41254;BME280;26987;59.928;30.306;2022-09-09T12:00:47;102562.38;;;13.90;45.70
41254;BME280;26987;59.928;30.306;2022-09-09T12:03:39;102554.94;;;14.07;45.52
41254;BME280;26987;59.928;30.306;2022-09-09T12:06:12;102553.53;;;13.96;45.15
41254;BME280;26987;59.928;30.306;2022-09-09T12:08:45;102549.28;;;14.02;44.90
41254;BME280;26987;59.928;30.306;2022-09-09T12:11:24;102548.72;;;14.07;44.97
41254;BME280;26987;59.928;30.306;2022-09-09T12:13:54;102553.19;;;13.99;45.19
41254;BME280;26987;59.928;30.306;2022-09-09T12:16:30;102545.75;;;14.02;45.41
41254;BME280;26987;59.928;30.306;2022-09-09T12:19:13;102544.47;;;13.97;45.33
41254;BME280;26987;59.928;30.306;2022-09-09T12:21:48;102543.59;;;13.82;44.50
41254;BME280;26987;59.928;30.306;2022-09-09T12:24:28;102536.44;;;13.74;44.95
41254;BME280;26987;59.928;30.306;2022-09-09T12:27:02;102543.41;;;13.68;44.68
41254;BME280;26987;59.928;30.306;2022-09-09T12:29:40;102551.97;;;13.72;45.38
41254;BME280;26987;59.928;30.306;2022-09-09T12:32:13;102535.09;;;13.55;45.35
41254;BME280;26987;59.928;30.306;2022-09-09T12:34:46;102540.84;;;13.52;45.26
41254;BME280;26987;59.928;30.306;2022-09-09T12:37:20;102540.97;;;13.35;45.51
41254;BME280;26987;59.928;30.306;2022-09-09T12:39:55;102532.66;;;13.21;46.46
41254;BME280;26987;59.928;30.306;2022-09-09T12:42:25;102535.72;;;13.18;46.67
41254;BME280;26987;59.928;30.306;2022-09-09T12:44:55;102536.84;;;13.24;47.06
41254;BME280;26987;59.928;30.306;2022-09-09T12:47:26;102537.63;;;13.33;46.24
41254;BME280;26987;59.928;30.306;2022-09-09T12:49:56;102543.13;;;13.40;45.69
41254;BME280;26987;59.928;30.306;2022-09-09T12:52:27;102535.66;;;13.50;45.55
41254;BME280;26987;59.928;30.306;2022-09-09T12:55:02;102532.09;;;13.49;45.60
41254;BME280;26987;59.928;30.306;2022-09-09T12:57:34;102524.44;;;13.38;45.98
41254;BME280;26987;59.928;30.306;2022-09-09T13:00:06;102520.63;;;13.32;46.12
41254;BME280;26987;59.928;30.306;2022-09-09T13:02:46;102519.72;;;13.40;46.94
41254;BME280;26987;59.928;30.306;2022-09-09T13:05:16;102517.56;;;13.35;47.53
41254;BME280;26987;59.928;30.306;2022-09-09T13:07:45;102522.69;;;13.45;47.15
41254;BME280;26987;59.928;30.306;2022-09-09T13:10:21;102526.09;;;13.62;46.22
41254;BME280;26987;59.928;30.306;2022-09-09T13:12:50;102519.50;;;13.65;47.21
41254;BME280;26987;59.928;30.306;2022-09-09T13:15:21;102528.09;;;13.84;47.12
41254;BME280;26987;59.928;30.306;2022-09-09T13:17:53;102519.03;;;13.92;47.47
41254;BME280;26987;59.928;30.306;2022-09-09T13:20:22;102517.13;;;14.00;46.49
41254;BME280;26987;59.928;30.306;2022-09-09T13:22:52;102517.13;;;14.00;46.33
41254;BME280;26987;59.928;30.306;2022-09-09T13:25:25;102510.31;;;14.05;46.67
41254;BME280;26987;59.928;30.306;2022-09-09T13:27:57;102513.94;;;13.97;46.77